Time;durP1;ratioP1;P1;durP2;ratioP2;P2;SDS_P1;SDS_P2;PMS_P1;PMS_P2;Temp;Humidity;BMP_temperature;BMP_pressure;BME280_temperature;BME280_humidity;BME280_pressure;Samples;Min_cycle;Max_cycle;Signal;HPM_P1;HPM_P2
2021/03/29 00:00:30;;;;;;;13.48;7.50;;;11.30;64.60;;;;;;5079609;28;20172;-79
2021/03/29 00:02:56;;;;;;;15.32;7.47;;;11.50;64.60;;;;;;5076471;28;20200;-79
2021/03/29 00:05:26;;;;;;;12.63;5.95;;;11.60;64.30;;;;;;5075541;28;20200;-79
2021/03/29 00:07:56;;;;;;;15.65;6.80;;;11.30;64.20;;;;;;5076770;28;20173;-79
2021/03/29 00:10:23;;;;;;;25.13;6.50;;;11.20;64.40;;;;;;5075102;28;20172;-79
2021/03/29 00:12:51;;;;;;;16.27;7.63;;;11.30;64.60;;;;;;5074344;28;20663;-79
2021/03/29 00:15:24;;;;;;;14.32;6.70;;;11.30;64.70;;;;;;5077247;28;20575;-79
2021/03/29 00:17:51;;;;;;;9.88;6.70;;;11.30;64.50;;;;;;5076615;28;20624;-79
2021/03/29 00:20:26;;;;;;;15.80;7.75;;;11.20;64.60;;;;;;5075092;28;20181;-79
2021/03/29 00:22:57;;;;;;;18.58;7.88;;;11.30;64.70;;;;;;5074889;28;20303;-80
2021/03/29 00:25:25;;;;;;;10.10;7.03;;;11.40;64.60;;;;;;5074920;28;20614;-80
2021/03/29 00:27:50;;;;;;;10.77;7.28;;;11.40;64.50;;;;;;5074663;28;20207;-80
2021/03/29 00:30:24;;;;;;;9.33;6.60;;;11.50;64.20;;;;;;5074876;28;20173;-80
2021/03/29 00:32:51;;;;;;;10.38;6.53;;;11.50;63.90;;;;;;5074749;28;20521;-80
2021/03/29 00:35:21;;;;;;;9.70;6.05;;;11.50;63.50;;;;;;5074446;28;20188;-80
2021/03/29 00:37:49;;;;;;;14.55;5.57;;;11.50;63.40;;;;;;5075050;28;20172;-80
2021/03/29 00:40:17;;;;;;;14.32;5.43;;;11.50;63.40;;;;;;5075519;28;20191;-80
2021/03/29 00:42:43;;;;;;;10.50;5.25;;;11.50;64.20;;;;;;5075098;28;20739;-80
2021/03/29 00:45:13;;;;;;;9.15;4.55;;;11.60;62.90;;;;;;5083113;28;20205;-80
2021/03/29 00:47:40;;;;;;;10.43;4.50;;;11.50;62.90;;;;;;5085132;28;20263;-80
2021/03/29 00:50:14;;;;;;;10.95;5.03;;;11.50;62.70;;;;;;5090395;28;20169;-80
2021/03/29 00:52:40;;;;;;;5.80;3.80;;;11.70;62.70;;;;;;5088280;28;20193;-80
2021/03/29 00:55:09;;;;;;;7.82;4.53;;;11.50;62.60;;;;;;5083194;28;20176;-80
2021/03/29 00:57:39;;;;;;;7.15;4.90;;;11.40;62.70;;;;;;5087136;28;20169;-80
2021/03/29 01:00:16;;;;;;;7.38;3.85;;;11.40;62.80;;;;;;5081328;28;20199;-79
2021/03/29 01:02:42;;;;;;;15.43;4.80;;;11.50;62.80;;;;;;5085084;28;20255;-79
2021/03/29 01:05:19;;;;;;;12.23;4.60;;;11.50;62.60;;;;;;5065540;28;20208;-80
2021/03/29 01:07:47;;;;;;;5.63;3.40;;;11.50;62.50;;;;;;5082283;28;20176;-80
2021/03/29 01:10:14;;;;;;;9.90;5.82;;;11.60;62.40;;;;;;5082558;28;20648;-80
2021/03/29 01:12:41;;;;;;;10.88;4.15;;;11.70;62.40;;;;;;5081308;28;20207;-80
2021/03/29 01:15:12;;;;;;;10.77;5.20;;;11.50;62.20;;;;;;5089578;28;20244;-80
2021/03/29 01:17:40;;;;;;;10.32;4.15;;;11.60;62.10;;;;;;5096827;28;20169;-80
2021/03/29 01:20:37;;;;;;;11.23;3.97;;;11.50;62.10;;;;;;5094732;28;20184;-80
2021/03/29 01:23:04;;;;;;;5.53;3.90;;;11.60;62.30;;;;;;5076153;28;20194;-80
2021/03/29 01:25:42;;;;;;;8.10;3.15;;;11.40;62.10;;;;;;5078755;28;20254;-80
2021/03/29 01:28:16;;;;;;;10.10;3.92;;;11.60;62.40;;;;;;5075652;28;20172;-80
2021/03/29 01:30:43;;;;;;;10.63;4.47;;;11.60;62.10;;;;;;5082658;28;20169;-79
2021/03/29 01:33:09;;;;;;;12.63;5.10;;;11.60;61.70;;;;;;5077106;28;20708;-80
2021/03/29 01:35:39;;;;;;;6.00;3.58;;;11.50;61.80;;;;;;5077536;28;20209;-80
2021/03/29 01:38:06;;;;;;;7.07;3.58;;;11.70;61.70;;;;;;5076560;28;20175;-79
2021/03/29 01:40:36;;;;;;;5.97;3.60;;;11.70;61.40;;;;;;5076499;28;20222;-80
2021/03/29 01:43:02;;;;;;;11.90;3.60;;;11.50;61.40;;;;;;5096043;28;20200;-80
2021/03/29 01:45:28;;;;;;;7.22;3.60;;;11.60;61.60;;;;;;5079334;28;20239;-79
2021/03/29 01:47:54;;;;;;;5.75;2.80;;;11.70;61.50;;;;;;5081330;28;20222;-80
2021/03/29 01:50:26;;;;;;;8.05;3.00;;;11.30;61.50;;;;;;5097025;28;20184;-80
2021/03/29 01:52:54;;;;;;;12.15;4.38;;;11.30;62.00;;;;;;5079670;28;20188;-80
2021/03/29 01:55:21;;;;;;;6.47;2.85;;;11.40;62.10;;;;;;5091010;28;20173;-80
2021/03/29 01:57:46;;;;;;;7.05;3.80;;;11.50;62.10;;;;;;5088225;28;20194;-80
2021/03/29 02:00:20;;;;;;;4.20;3.40;;;11.50;62.10;;;;;;5092490;28;20180;-80
2021/03/29 02:02:46;;;;;;;8.13;3.08;;;11.40;62.00;;;;;;5091387;28;20676;-80
2021/03/29 02:05:14;;;;;;;12.90;2.40;;;11.30;62.20;;;;;;5094931;28;20184;-80
2021/03/29 02:07:42;;;;;;;8.45;3.13;;;11.30;62.40;;;;;;5094116;28;20181;-80
2021/03/29 02:10:14;;;;;;;8.30;3.03;;;11.40;62.40;;;;;;5094598;28;20202;-80
2021/03/29 02:12:41;;;;;;;8.52;2.55;;;11.60;62.30;;;;;;5109686;28;20243;-80
2021/03/29 02:15:13;;;;;;;8.30;3.35;;;11.50;62.10;;;;;;5114659;28;20164;-80
2021/03/29 02:17:40;;;;;;;8.45;3.58;;;11.40;62.00;;;;;;5114368;28;20180;-80
2021/03/29 02:20:15;;;;;;;10.70;3.70;;;11.40;62.20;;;;;;5109635;28;20175;-80
2021/03/29 02:22:46;;;;;;;6.47;2.63;;;11.40;62.30;;;;;;5095333;28;20203;-81
2021/03/29 02:25:13;;;;;;;9.80;3.70;;;11.40;62.40;;;;;;5106566;28;20184;-81
2021/03/29 02:27:39;;;;;;;4.68;2.60;;;11.50;62.30;;;;;;5114882;28;20188;-81
2021/03/29 02:30:14;;;;;;;5.50;2.90;;;11.50;62.00;;;;;;5114338;28;20252;-81
2021/03/29 02:32:45;;;;;;;7.47;3.15;;;11.50;61.90;;;;;;5114760;28;20207;-81
2021/03/29 02:35:12;;;;;;;7.63;3.00;;;11.50;62.00;;;;;;5114198;28;20248;-81
2021/03/29 02:37:40;;;;;;;12.93;2.70;;;11.60;61.90;;;;;;5113461;28;20198;-81
2021/03/29 02:40:07;;;;;;;7.45;3.88;;;11.50;62.00;;;;;;5111806;28;20176;-81
2021/03/29 02:42:35;;;;;;;17.70;2.95;;;11.50;62.00;;;;;;5111831;28;20223;-81
2021/03/29 02:45:11;;;;;;;12.73;2.95;;;11.40;62.10;;;;;;5111906;28;20199;-81
2021/03/29 02:47:44;;;;;;;17.63;3.25;;;11.50;62.40;;;;;;5110469;28;20171;-81
2021/03/29 02:50:24;;;;;;;11.85;3.17;;;11.50;62.40;;;;;;5102874;28;20172;-78
2021/03/29 02:52:55;;;;;;;4.55;2.92;;;11.60;62.40;;;;;;5095367;28;20207;-78
2021/03/29 02:55:22;;;;;;;9.90;3.10;;;11.50;62.20;;;;;;5095537;28;20206;-78
2021/03/29 02:57:51;;;;;;;7.00;3.28;;;11.50;62.60;;;;;;5095959;28;20179;-78
2021/03/29 03:00:24;;;;;;;8.90;3.70;;;11.50;62.70;;;;;;5101223;28;20210;-79
2021/03/29 03:02:53;;;;;;;12.13;3.30;;;11.40;62.60;;;;;;5099469;28;20195;-79
2021/03/29 03:05:21;;;;;;;5.70;2.95;;;11.50;62.70;;;;;;5098003;28;20199;-79
2021/03/29 03:07:47;;;;;;;7.50;3.10;;;11.40;62.40;;;;;;5099174;28;20172;-79
2021/03/29 03:10:14;;;;;;;9.45;2.85;;;11.40;62.70;;;;;;5097535;28;20977;-79
2021/03/29 03:12:45;;;;;;;6.95;3.75;;;11.40;62.60;;;;;;5083351;28;20690;-79
2021/03/29 03:15:18;;;;;;;12.18;3.38;;;11.40;62.80;;;;;;5081630;28;20176;-79
2021/03/29 03:17:45;;;;;;;12.23;2.60;;;11.50;62.60;;;;;;5078938;28;20184;-79
2021/03/29 03:20:12;;;;;;;6.43;2.92;;;11.50;62.80;;;;;;5094587;28;20176;-79
2021/03/29 03:22:54;;;;;;;3.40;2.42;;;11.40;62.70;;;;;;5077444;28;20196;-79
2021/03/29 03:25:30;;;;;;;7.75;3.10;;;11.40;62.70;;;;;;5093159;28;20250;-79
2021/03/29 03:27:59;;;;;;;6.68;2.22;;;11.50;62.90;;;;;;5085899;28;20180;-79
2021/03/29 03:30:30;;;;;;;6.90;3.20;;;11.50;62.90;;;;;;5077500;28;20189;-79
2021/03/29 03:32:57;;;;;;;7.45;2.53;;;11.40;62.80;;;;;;5080191;28;20275;-79
2021/03/29 03:35:25;;;;;;;4.85;2.83;;;11.20;63.00;;;;;;5066025;28;20230;-79
2021/03/29 03:37:54;;;;;;;7.45;3.30;;;11.40;63.10;;;;;;5080992;28;20659;-80
2021/03/29 03:40:22;;;;;;;7.78;4.28;;;11.30;62.80;;;;;;5090265;28;20180;-79
2021/03/29 03:42:50;;;;;;;8.40;4.15;;;11.00;63.30;;;;;;5091760;28;20764;-79
2021/03/29 03:45:19;;;;;;;4.53;4.05;;;10.90;63.80;;;;;;5099635;28;20274;-79
2021/03/29 03:47:46;;;;;;;11.52;4.40;;;11.10;63.90;;;;;;5088525;28;20157;-79
2021/03/29 03:50:14;;;;;;;10.10;4.70;;;11.20;63.60;;;;;;5099535;28;20196;-79
2021/03/29 03:52:41;;;;;;;6.35;5.05;;;11.30;63.60;;;;;;5098106;28;20196;-79
2021/03/29 03:55:11;;;;;;;6.95;4.53;;;11.40;63.40;;;;;;5092581;28;20181;-79
2021/03/29 03:57:38;;;;;;;7.90;4.53;;;11.20;63.30;;;;;;5094153;28;20176;-79
2021/03/29 04:00:16;;;;;;;11.18;6.15;;;11.00;63.40;;;;;;5096201;28;20183;-79
2021/03/29 04:02:43;;;;;;;12.73;4.80;;;11.00;64.70;;;;;;5097295;28;20204;-80
2021/03/29 04:05:11;;;;;;;5.35;3.58;;;10.80;64.20;;;;;;5096093;28;20280;-79
2021/03/29 04:07:37;;;;;;;10.13;4.43;;;10.60;64.50;;;;;;5097000;28;20694;-79
2021/03/29 04:10:17;;;;;;;7.40;4.15;;;10.80;64.90;;;;;;5097666;28;20207;-80
2021/03/29 04:12:45;;;;;;;6.35;3.40;;;10.90;64.80;;;;;;5113889;28;20280;-79
2021/03/29 04:15:14;;;;;;;15.18;4.75;;;10.80;64.70;;;;;;5119218;28;20183;-79
2021/03/29 04:17:40;;;;;;;13.63;4.40;;;10.80;64.80;;;;;;5105875;28;20240;-79
2021/03/29 04:20:08;;;;;;;7.77;3.73;;;10.60;65.10;;;;;;5097072;28;20553;-79
2021/03/29 04:22:34;;;;;;;7.90;4.63;;;10.60;65.30;;;;;;5094783;28;20422;-79
2021/03/29 04:24:59;;;;;;;7.07;4.17;;;10.40;65.60;;;;;;5095960;28;20213;-79
2021/03/29 04:27:25;;;;;;;8.73;4.10;;;10.70;65.70;;;;;;5092234;28;20427;-79
2021/03/29 04:29:51;;;;;;;4.20;3.17;;;10.90;65.40;;;;;;5090221;28;20196;-79
2021/03/29 04:32:17;;;;;;;10.70;4.87;;;10.90;65.00;;;;;;5087682;28;20180;-79
2021/03/29 04:34:42;;;;;;;10.33;3.80;;;10.90;65.10;;;;;;5089318;28;20427;-79
2021/03/29 04:37:08;;;;;;;6.43;4.17;;;10.80;65.00;;;;;;5095297;28;20188;-79
2021/03/29 04:39:34;;;;;;;6.10;3.70;;;10.90;65.10;;;;;;5094706;28;20244;-81
2021/03/29 04:42:00;;;;;;;11.03;4.20;;;10.80;64.90;;;;;;5096263;28;20197;-79
2021/03/29 04:44:25;;;;;;;12.80;4.50;;;10.80;65.10;;;;;;5090516;28;20213;-79
2021/03/29 04:46:51;;;;;;;8.97;5.20;;;10.90;65.20;;;;;;5085453;28;20176;-80
2021/03/29 04:49:17;;;;;;;10.20;5.77;;;10.80;65.00;;;;;;5083650;28;20173;-79
2021/03/29 04:51:42;;;;;;;12.37;5.83;;;10.80;65.30;;;;;;5095766;28;20222;-79
2021/03/29 04:54:08;;;;;;;16.13;6.20;;;10.80;65.40;;;;;;5096611;28;20180;-79
2021/03/29 04:56:34;;;;;;;9.67;6.10;;;10.80;65.40;;;;;;5096654;28;20196;-79
2021/03/29 04:59:00;;;;;;;13.73;6.50;;;10.50;66.40;;;;;;5097283;28;20425;-79
2021/03/29 05:01:25;;;;;;;7.77;5.57;;;10.60;66.20;;;;;;5113450;28;20203;-79
2021/03/29 05:03:52;;;;;;;10.67;6.40;;;10.60;66.10;;;;;;5096177;28;20522;-79
2021/03/29 05:06:18;;;;;;;14.30;7.28;;;10.60;66.10;;;;;;5096996;28;20228;-79
2021/03/29 05:08:44;;;;;;;22.50;7.47;;;10.60;66.10;;;;;;5096371;28;20188;-79
2021/03/29 05:11:11;;;;;;;14.60;6.47;;;10.60;66.20;;;;;;5097240;28;20224;-80
2021/03/29 05:13:36;;;;;;;12.48;6.38;;;10.60;66.20;;;;;;5116935;28;20255;-79
2021/03/29 05:16:02;;;;;;;12.03;7.03;;;10.60;66.20;;;;;;5115566;28;20187;-79
2021/03/29 05:18:28;;;;;;;13.13;6.43;;;10.50;66.20;;;;;;5099733;28;20188;-79
2021/03/29 05:20:55;;;;;;;9.27;7.00;;;10.50;66.50;;;;;;5094938;28;20187;-79
2021/03/29 05:23:21;;;;;;;13.02;6.45;;;10.50;66.60;;;;;;5095434;28;20189;-78
2021/03/29 05:25:50;;;;;;;12.73;6.65;;;10.50;66.50;;;;;;5094440;28;20220;-79
2021/03/29 05:28:16;;;;;;;11.63;5.95;;;10.60;66.40;;;;;;5094943;28;20168;-79
2021/03/29 05:30:42;;;;;;;12.10;5.73;;;10.50;66.40;;;;;;5095599;28;20191;-79
2021/03/29 05:33:08;;;;;;;9.30;5.80;;;10.40;66.40;;;;;;5096867;28;20192;-79
2021/03/29 05:35:34;;;;;;;6.70;5.40;;;10.50;66.90;;;;;;5096414;28;20223;-79
2021/03/29 05:37:59;;;;;;;6.70;5.00;;;10.40;66.90;;;;;;5096964;28;20177;-79
2021/03/29 05:40:25;;;;;;;8.70;4.23;;;10.50;67.10;;;;;;5090706;28;20184;-80
2021/03/29 05:42:52;;;;;;;8.60;4.70;;;10.50;66.90;;;;;;5085168;28;20450;-79
2021/03/29 05:45:18;;;;;;;10.40;4.72;;;10.60;66.80;;;;;;5081481;28;20458;-80
2021/03/29 05:47:45;;;;;;;11.32;5.82;;;10.60;66.50;;;;;;5085681;28;20180;-79
2021/03/29 05:50:15;;;;;;;9.80;3.60;;;10.60;66.50;;;;;;5085324;28;20183;-79
2021/03/29 05:52:42;;;;;;;9.82;4.78;;;10.70;66.40;;;;;;5079152;28;20193;-79
2021/03/29 05:55:24;;;;;;;9.38;3.80;;;11.00;66.20;;;;;;5075218;28;20632;-79
2021/03/29 06:00:37;;;;;;;9.90;3.40;;;12.00;63.40;;;;;;5077465;28;20206;-79
2021/03/29 06:03:36;;;;;;;10.77;3.75;;;12.60;61.50;;;;;;5080615;28;20258;-79
2021/03/29 06:06:13;;;;;;;8.60;3.13;;;13.40;59.70;;;;;;5110111;28;20184;-79
2021/03/29 06:08:51;;;;;;;8.02;3.95;;;14.40;56.90;;;;;;5093873;28;20161;-81
2021/03/29 06:11:24;;;;;;;9.40;3.90;;;15.10;54.60;;;;;;5097089;28;20159;-80
2021/03/29 06:14:12;;;;;;;7.93;4.20;;;16.00;51.80;;;;;;5113761;28;20244;-79
2021/03/29 06:16:55;;;;;;;12.20;4.30;;;16.20;49.20;;;;;;5115102;28;20152;-79
2021/03/29 06:19:49;;;;;;;10.95;5.38;;;16.80;47.60;;;;;;5115087;28;20164;-80
2021/03/29 06:22:42;;;;;;;9.20;4.15;;;17.60;46.20;;;;;;5114216;28;20639;-79
2021/03/29 06:25:12;;;;;;;8.70;4.35;;;18.40;43.60;;;;;;5115091;28;20202;-79
2021/03/29 06:27:39;;;;;;;5.30;4.10;;;19.20;42.00;;;;;;5115246;28;20168;-79
2021/03/29 06:30:13;;;;;;;8.85;3.95;;;19.90;40.50;;;;;;5115031;28;20152;-79
2021/03/29 06:32:55;;;;;;;8.07;4.07;;;20.30;38.20;;;;;;5113051;28;20195;-79
2021/03/29 06:35:23;;;;;;;7.47;5.00;;;21.00;37.20;;;;;;5119567;28;20175;-79
2021/03/29 06:37:50;;;;;;;14.87;4.03;;;21.50;36.00;;;;;;5117784;28;20202;-79
2021/03/29 06:40:16;;;;;;;7.03;4.17;;;21.60;35.20;;;;;;5117991;28;20488;-79
2021/03/29 06:42:42;;;;;;;9.20;4.17;;;21.20;35.20;;;;;;5118812;28;20460;-80
2021/03/29 06:45:15;;;;;;;15.63;5.07;;;20.70;36.10;;;;;;5117959;28;20461;-80
2021/03/29 06:47:45;;;;;;;9.33;3.87;;;20.00;37.00;;;;;;5120074;28;20484;-79
2021/03/29 06:50:26;;;;;;;9.55;4.20;;;19.10;38.60;;;;;;5116999;28;20520;-79
2021/03/29 06:52:52;;;;;;;4.88;3.25;;;18.40;40.10;;;;;;5112487;28;20191;-81
2021/03/29 06:55:26;;;;;;;4.68;3.25;;;17.20;42.60;;;;;;5107955;28;20172;-82
2021/03/29 06:57:59;;;;;;;16.70;3.50;;;16.80;44.30;;;;;;5109969;28;20155;-81
2021/03/29 07:00:34;;;;;;;8.48;3.92;;;15.80;46.00;;;;;;5112854;28;20232;-81
2021/03/29 07:03:09;;;;;;;8.13;4.28;;;15.40;48.30;;;;;;5113968;28;20206;-82
2021/03/29 07:05:37;;;;;;;6.93;4.05;;;14.90;49.80;;;;;;5116918;28;20207;-79
2021/03/29 07:08:04;;;;;;;6.82;4.32;;;14.20;51.70;;;;;;5114420;28;20168;-79
2021/03/29 07:10:31;;;;;;;8.45;3.45;;;13.50;53.90;;;;;;5112022;28;20248;-80
2021/03/29 07:12:57;;;;;;;8.15;4.43;;;13.10;56.00;;;;;;5113955;28;20184;-80
2021/03/29 07:15:24;;;;;;;7.00;3.72;;;13.10;56.70;;;;;;5113878;28;20279;-80
2021/03/29 07:17:50;;;;;;;6.72;5.07;;;13.00;56.90;;;;;;5117057;28;20176;-80
2021/03/29 07:20:24;;;;;;;6.97;3.45;;;13.10;57.90;;;;;;5108229;28;20172;-80
2021/03/29 07:22:50;;;;;;;7.80;4.43;;;12.90;58.00;;;;;;5117503;28;20230;-80
2021/03/29 07:25:18;;;;;;;18.77;4.73;;;12.80;58.70;;;;;;5119832;28;20267;-80
2021/03/29 07:27:51;;;;;;;5.43;3.10;;;12.80;58.90;;;;;;5119741;28;20406;-79
2021/03/29 07:30:38;;;;;;;8.45;4.88;;;12.70;59.20;;;;;;5107829;28;20184;-79
2021/03/29 07:33:04;;;;;;;9.30;3.92;;;12.60;59.60;;;;;;5096053;28;20188;-80
2021/03/29 07:35:54;;;;;;;6.97;4.68;;;12.70;59.80;;;;;;5095731;28;20200;-80
2021/03/29 07:38:22;;;;;;;8.10;4.05;;;12.80;59.70;;;;;;5098098;28;20192;-79
2021/03/29 07:40:59;;;;;;;12.55;3.25;;;12.90;59.90;;;;;;5091337;28;20254;-80
2021/03/29 07:43:32;;;;;;;10.32;3.67;;;12.80;59.90;;;;;;5089873;28;20741;-80
2021/03/29 07:46:04;;;;;;;11.93;3.90;;;12.90;59.80;;;;;;5085397;28;20197;-80
2021/03/29 07:48:41;;;;;;;6.65;4.18;;;12.80;59.80;;;;;;5082360;28;20586;-80
2021/03/29 07:51:14;;;;;;;9.88;3.90;;;12.80;59.80;;;;;;5078294;28;20180;-80
2021/03/29 07:53:43;;;;;;;8.23;3.72;;;12.80;60.00;;;;;;5094282;28;20251;-80
2021/03/29 07:56:11;;;;;;;12.13;3.97;;;12.80;60.00;;;;;;5089942;28;20181;-80
2021/03/29 07:58:45;;;;;;;6.40;3.22;;;12.80;59.70;;;;;;5089034;28;20241;-80
2021/03/29 08:01:13;;;;;;;12.85;3.70;;;12.90;59.60;;;;;;5082940;28;20646;-80
2021/03/29 08:03:43;;;;;;;5.45;3.40;;;12.70;59.50;;;;;;5089755;28;20169;-80
2021/03/29 08:06:42;;;;;;;6.05;3.13;;;12.80;59.30;;;;;;5088922;28;20229;-80
2021/03/29 08:09:13;;;;;;;11.07;4.20;;;13.00;58.90;;;;;;5085620;28;20161;-80
2021/03/29 08:12:01;;;;;;;6.07;3.55;;;13.00;58.50;;;;;;5083693;28;20242;-80
2021/03/29 08:14:35;;;;;;;8.35;3.97;;;13.10;58.50;;;;;;5089146;28;20180;-80
2021/03/29 08:17:38;;;;;;;7.18;3.85;;;13.10;58.00;;;;;;5092669;28;20232;-80
2021/03/29 08:20:10;;;;;;;15.43;4.50;;;13.10;57.60;;;;;;5095347;28;20198;-80
2021/03/29 08:22:35;;;;;;;6.95;4.15;;;13.10;57.30;;;;;;5093878;28;20196;-80
2021/03/29 08:25:02;;;;;;;6.17;3.70;;;13.00;56.80;;;;;;5093497;28;20207;-80
2021/03/29 08:27:34;;;;;;;4.72;3.58;;;13.20;56.80;;;;;;5096201;28;20165;-79
2021/03/29 08:30:12;;;;;;;14.95;3.75;;;13.10;56.00;;;;;;5094542;28;20164;-80
2021/03/29 08:32:38;;;;;;;10.88;3.53;;;13.20;55.20;;;;;;5091525;28;20686;-80
2021/03/29 08:35:07;;;;;;;7.38;2.63;;;13.40;54.70;;;;;;5089345;28;20176;-80
2021/03/29 08:37:47;;;;;;;8.52;3.00;;;13.50;54.40;;;;;;5087961;28;20698;-80
2021/03/29 08:40:20;;;;;;;7.10;3.42;;;13.60;54.20;;;;;;5083679;28;20232;-80
2021/03/29 08:42:48;;;;;;;6.53;3.95;;;13.60;53.70;;;;;;5083223;28;20291;-81
2021/03/29 08:45:16;;;;;;;5.32;3.45;;;13.70;53.80;;;;;;5085667;28;20235;-80
2021/03/29 08:47:44;;;;;;;10.30;3.83;;;13.80;53.50;;;;;;5086843;28;20236;-80
2021/03/29 08:50:16;;;;;;;6.22;2.85;;;13.80;52.60;;;;;;5086334;28;20185;-80
2021/03/29 08:52:44;;;;;;;8.77;3.50;;;13.80;52.40;;;;;;5087808;28;20227;-80
2021/03/29 08:55:26;;;;;;;4.72;3.65;;;14.00;52.10;;;;;;5090338;28;20180;-80
2021/03/29 08:57:56;;;;;;;8.55;3.53;;;13.90;51.80;;;;;;5095050;28;20232;-80
2021/03/29 09:00:27;;;;;;;12.13;5.60;;;13.80;51.20;;;;;;5091060;28;20167;-80
2021/03/29 09:02:53;;;;;;;11.68;3.58;;;14.00;50.90;;;;;;5088681;28;20200;-80
2021/03/29 09:05:21;;;;;;;3.72;2.65;;;14.00;50.70;;;;;;5089045;28;20230;-80
2021/03/29 09:07:49;;;;;;;4.53;3.00;;;14.00;49.50;;;;;;5089811;28;20199;-80
2021/03/29 09:10:21;;;;;;;9.55;3.22;;;14.20;50.40;;;;;;5087176;28;20176;-80
2021/03/29 09:12:52;;;;;;;11.52;4.05;;;14.20;49.30;;;;;;5086256;28;20279;-80
2021/03/29 09:15:18;;;;;;;8.27;3.35;;;14.30;49.20;;;;;;5089190;28;20192;-81
2021/03/29 09:17:59;;;;;;;9.90;4.30;;;14.20;48.70;;;;;;5089240;28;20168;-80
2021/03/29 09:20:31;;;;;;;6.40;3.25;;;14.40;48.10;;;;;;5091582;28;20370;-81
2021/03/29 09:22:57;;;;;;;9.35;2.75;;;14.50;48.00;;;;;;5090389;28;20206;-81
2021/03/29 09:25:29;;;;;;;8.80;3.90;;;14.60;49.00;;;;;;5095424;28;20220;-80
2021/03/29 09:28:25;;;;;;;10.27;3.28;;;14.40;47.30;;;;;;5090709;28;20492;-80
2021/03/29 09:30:52;;;;;;;7.85;4.13;;;14.50;47.30;;;;;;5108573;28;20159;-81
2021/03/29 09:33:20;;;;;;;9.68;3.03;;;14.40;47.10;;;;;;5112206;28;20187;-80
2021/03/29 09:35:47;;;;;;;7.93;3.55;;;14.60;47.00;;;;;;5111974;28;20184;-80
2021/03/29 09:38:14;;;;;;;4.45;2.70;;;14.70;45.90;;;;;;5112935;28;20184;-80
2021/03/29 09:40:41;;;;;;;3.92;3.05;;;14.90;45.60;;;;;;5112596;28;20240;-81
2021/03/29 09:43:18;;;;;;;9.88;3.58;;;15.00;45.80;;;;;;5110535;28;20302;-81
2021/03/29 09:45:43;;;;;;;12.13;4.25;;;15.20;47.50;;;;;;5106207;28;20207;-81
2021/03/29 09:48:10;;;;;;;13.23;3.57;;;15.00;45.60;;;;;;5114126;28;20185;-80
2021/03/29 09:50:42;;;;;;;7.80;3.05;;;15.10;45.70;;;;;;5115174;28;20182;-79
2021/03/29 09:53:20;;;;;;;5.40;3.38;;;15.30;46.10;;;;;;5115110;28;20200;-80
2021/03/29 09:55:51;;;;;;;7.93;3.10;;;15.50;45.50;;;;;;5115396;28;20187;-79
2021/03/29 09:58:24;;;;;;;7.65;3.45;;;15.70;45.20;;;;;;5115549;28;20175;-80
2021/03/29 10:00:52;;;;;;;9.80;3.90;;;15.50;43.70;;;;;;5115357;28;20178;-79
2021/03/29 10:03:20;;;;;;;7.10;2.75;;;15.60;43.40;;;;;;5115441;28;20200;-79
2021/03/29 10:05:47;;;;;;;6.75;3.28;;;15.70;44.40;;;;;;5114744;28;20212;-79
2021/03/29 10:08:34;;;;;;;5.35;2.70;;;15.60;43.90;;;;;;5114473;28;20172;-81
2021/03/29 10:11:08;;;;;;;4.05;2.30;;;15.80;41.70;;;;;;5111423;28;20191;-81
2021/03/29 10:13:39;;;;;;;4.85;3.13;;;15.90;42.30;;;;;;5074240;28;20187;-81
2021/03/29 10:16:23;;;;;;;6.88;2.72;;;16.00;41.90;;;;;;5089782;28;20171;-80
2021/03/29 10:19:07;;;;;;;4.97;2.30;;;15.80;41.00;;;;;;5090236;28;20250;-80
2021/03/29 10:21:34;;;;;;;3.35;2.50;;;15.80;40.70;;;;;;5091517;28;20196;-79
2021/03/29 10:24:15;;;;;;;4.05;2.42;;;15.90;40.50;;;;;;5092083;28;20222;-79
2021/03/29 10:26:58;;;;;;;8.52;3.38;;;16.00;40.60;;;;;;5088469;28;20177;-79
2021/03/29 10:29:38;;;;;;;5.97;2.55;;;16.30;40.90;;;;;;5090996;28;20226;-80
2021/03/29 10:32:09;;;;;;;8.90;3.40;;;16.30;39.40;;;;;;5108409;28;20199;-80
2021/03/29 10:34:37;;;;;;;5.13;2.55;;;16.40;39.20;;;;;;5112690;28;20176;-80
2021/03/29 10:37:04;;;;;;;2.65;2.25;;;16.30;39.20;;;;;;5103116;28;20160;-81
2021/03/29 10:39:30;;;;;;;6.00;2.53;;;16.40;39.00;;;;;;5110880;28;20176;-80
2021/03/29 10:41:56;;;;;;;6.00;3.27;;;16.40;38.90;;;;;;5112107;28;20239;-80
2021/03/29 10:44:21;;;;;;;9.53;2.80;;;16.60;38.10;;;;;;5108096;28;20192;-80
2021/03/29 10:46:47;;;;;;;6.87;2.60;;;16.80;38.50;;;;;;5112331;28;20172;-80
2021/03/29 10:49:13;;;;;;;4.20;2.30;;;17.00;39.30;;;;;;5097076;28;20168;-80
2021/03/29 10:51:39;;;;;;;6.97;2.50;;;17.10;39.20;;;;;;5092923;28;20203;-81
2021/03/29 10:54:05;;;;;;;10.70;2.37;;;17.20;38.70;;;;;;5094866;28;20626;-80
2021/03/29 10:56:31;;;;;;;4.35;2.88;;;17.10;38.30;;;;;;5096177;28;20531;-80
2021/03/29 10:58:57;;;;;;;4.07;2.50;;;17.10;37.70;;;;;;5100638;28;20175;-80
2021/03/29 11:01:23;;;;;;;6.85;2.70;;;17.20;36.80;;;;;;5098909;28;20202;-81
2021/03/29 11:03:49;;;;;;;3.87;2.23;;;17.20;36.60;;;;;;5094811;28;20211;-81
2021/03/29 11:06:19;;;;;;;5.80;2.77;;;17.20;37.90;;;;;;5092578;28;20172;-81
2021/03/29 11:08:45;;;;;;;7.78;2.60;;;17.20;36.70;;;;;;5073653;28;20181;-81
2021/03/29 11:11:10;;;;;;;7.67;2.47;;;17.30;37.90;;;;;;5075167;28;20249;-82
2021/03/29 11:13:36;;;;;;;6.30;2.00;;;17.30;35.70;;;;;;5095039;28;20175;-81
2021/03/29 11:16:05;;;;;;;2.97;2.20;;;17.30;34.20;;;;;;5094733;28;20221;-81
2021/03/29 11:18:31;;;;;;;5.82;2.00;;;17.40;35.90;;;;;;5101285;28;20167;-80
2021/03/29 11:20:57;;;;;;;4.30;2.43;;;17.20;34.90;;;;;;5098103;28;20310;-81
2021/03/29 11:23:25;;;;;;;2.73;1.80;;;17.40;35.90;;;;;;5097720;28;20448;-81
2021/03/29 11:25:55;;;;;;;4.65;2.80;;;17.70;36.90;;;;;;5099060;28;20538;-81
2021/03/29 11:28:21;;;;;;;5.75;2.42;;;17.70;36.60;;;;;;5099568;28;20168;-81
2021/03/29 11:30:47;;;;;;;3.80;2.27;;;17.80;35.00;;;;;;5101375;28;20678;-81
2021/03/29 11:33:13;;;;;;;9.03;2.90;;;17.70;34.80;;;;;;5101441;28;20448;-81
2021/03/29 11:35:39;;;;;;;4.70;2.28;;;17.90;34.70;;;;;;5102242;28;20410;-81
2021/03/29 11:38:05;;;;;;;5.63;3.00;;;17.90;36.10;;;;;;5101322;28;20183;-81
2021/03/29 11:40:31;;;;;;;4.13;2.13;;;17.80;35.70;;;;;;5095788;28;20450;-81
2021/03/29 11:42:56;;;;;;;6.10;2.77;;;18.10;36.30;;;;;;5077993;28;20208;-80
2021/03/29 11:45:23;;;;;;;3.60;2.20;;;18.10;33.90;;;;;;5076848;28;20465;-81
2021/03/29 11:47:48;;;;;;;5.72;2.42;;;18.30;35.30;;;;;;5077137;28;20422;-80
2021/03/29 11:50:15;;;;;;;5.43;2.20;;;18.20;34.50;;;;;;5083335;28;20244;-80
2021/03/29 11:52:42;;;;;;;3.85;2.63;;;18.10;33.60;;;;;;5078486;28;20246;-80
2021/03/29 11:55:08;;;;;;;4.93;2.15;;;18.20;33.40;;;;;;5077826;28;20181;-80
2021/03/29 11:57:35;;;;;;;7.15;2.55;;;18.50;33.60;;;;;;5078990;28;20153;-81
2021/03/29 12:00:04;;;;;;;6.05;2.38;;;18.60;34.20;;;;;;5076935;28;20187;-80
2021/03/29 12:02:50;;;;;;;5.35;2.80;;;18.60;33.00;;;;;;5077224;28;20261;-80
2021/03/29 12:05:21;;;;;;;3.53;2.33;;;18.50;32.40;;;;;;5078486;28;20184;-81
2021/03/29 12:13:18;;;;;;;5.05;2.65;;;18.80;32.20;;;;;;5097344;28;20250;-80
2021/03/29 12:15:51;;;;;;;3.78;2.13;;;18.50;31.20;;;;;;5083785;28;20271;-81
2021/03/29 12:18:33;;;;;;;4.65;2.40;;;18.50;30.00;;;;;;5084311;28;20215;-81
2021/03/29 12:21:00;;;;;;;8.48;2.30;;;18.50;30.00;;;;;;5076322;28;20169;-81
2021/03/29 12:23:27;;;;;;;5.90;3.50;;;18.60;32.80;;;;;;5075656;28;20671;-80
2021/03/29 12:25:54;;;;;;;3.85;1.98;;;18.70;33.80;;;;;;5075839;28;20204;-80
2021/03/29 12:28:21;;;;;;;7.60;2.30;;;18.80;31.60;;;;;;5074941;28;20189;-80
2021/03/29 12:30:47;;;;;;;9.48;2.45;;;18.70;31.80;;;;;;5074477;28;20250;-80
2021/03/29 12:33:14;;;;;;;8.23;3.03;;;18.80;32.20;;;;;;5076237;28;20184;-80
2021/03/29 12:35:40;;;;;;;4.22;2.70;;;19.00;32.30;;;;;;5074512;28;20418;-80
2021/03/29 12:38:06;;;;;;;6.45;2.63;;;18.90;30.00;;;;;;5074844;28;20204;-81
2021/03/29 12:40:34;;;;;;;3.03;2.60;;;18.80;30.00;;;;;;5076107;28;20176;-80
2021/03/29 12:45:28;;;;;;;3.13;2.10;;;18.90;30.00;;;;;;5076733;28;20203;-80
2021/03/29 12:48:02;;;;;;;9.93;2.92;;;19.00;30.00;;;;;;5076717;28;20200;-80
2021/03/29 12:50:29;;;;;;;4.57;2.53;;;19.20;30.00;;;;;;5075035;28;20164;-81
2021/03/29 12:52:55;;;;;;;8.27;2.83;;;19.20;30.00;;;;;;5074704;28;20203;-80
2021/03/29 12:55:24;;;;;;;5.13;2.80;;;19.30;30.00;;;;;;5075966;28;20189;-80
2021/03/29 12:57:52;;;;;;;9.25;2.83;;;19.40;30.00;;;;;;5075777;28;20180;-80
2021/03/29 13:00:20;;;;;;;4.45;2.38;;;19.30;30.00;;;;;;5074186;28;20640;-80
2021/03/29 13:02:47;;;;;;;2.85;2.35;;;19.40;30.00;;;;;;5073773;28;20203;-80
2021/03/29 13:05:22;;;;;;;4.75;2.58;;;19.30;30.00;;;;;;5074331;28;20207;-80
2021/03/29 13:07:57;;;;;;;4.25;3.00;;;19.40;30.00;;;;;;5073936;28;20704;-80